createdAt,value
2023-10-29T00:05:08.021Z,92.72
2023-10-29T00:10:39.832Z,92.6
2023-10-29T00:16:12.105Z,93.2
2023-10-29T00:21:43.216Z,92.98
2023-10-29T00:27:14.996Z,93.08
2023-10-29T00:32:46.858Z,92.41
2023-10-29T00:38:19.049Z,93.21
2023-10-29T00:43:50.133Z,92.76
2023-10-29T00:49:26.332Z,92.92
2023-10-29T00:54:57.975Z,92.19
2023-10-29T01:00:29.651Z,92.01
2023-10-29T01:06:02.005Z,92.32
2023-10-29T01:11:33.097Z,90.92
2023-10-29T01:17:04.975Z,91.41
2023-10-29T01:22:36.521Z,90.5
2023-10-29T01:28:08.445Z,90.98
2023-10-29T01:33:40.474Z,89.7
2023-10-29T01:39:11.759Z,90.28
2023-10-29T01:44:43.523Z,89.05
2023-10-29T01:50:19.615Z,88.13
2023-10-29T01:55:51.276Z,87.68
2023-10-29T02:01:23.321Z,87.42
2023-10-29T02:07:43.100Z,87.83
2023-10-29T02:12:26.542Z,87.17
2023-10-29T02:17:58.009Z,86.93
2023-10-29T02:23:29.806Z,86.46
2023-10-29T02:29:01.324Z,86.87
2023-10-29T02:34:33.135Z,86.34
2023-10-29T02:40:04.834Z,86.03
2023-10-29T02:45:36.599Z,85.79
2023-10-29T02:51:12.725Z,85.41
2023-10-29T02:56:44.484Z,85.27
2023-10-29T03:02:16.099Z,85.33
2023-10-29T03:07:47.912Z,85.15
2023-10-29T03:13:19.638Z,83.79
2023-10-29T03:18:51.324Z,83.58
2023-10-29T03:24:23.172Z,83.02
2023-10-29T03:29:54.924Z,82.29
2023-10-29T03:35:26.640Z,82.92
2023-10-29T03:40:58.235Z,86.08
2023-10-29T03:46:29.932Z,85.38
2023-10-29T03:52:06.118Z,83.74
2023-10-29T03:57:37.923Z,83.05
2023-10-29T04:03:09.575Z,83.71
2023-10-29T04:08:41.218Z,83.92
2023-10-29T04:14:13.075Z,85.54
2023-10-29T04:19:44.680Z,84.39
2023-10-29T04:25:16.761Z,81.16
2023-10-29T04:30:48.376Z,80.44
2023-10-29T04:36:20.122Z,77.83
2023-10-29T04:41:51.916Z,76.64
2023-10-29T04:47:24.395Z,77.6
2023-10-29T04:52:59.466Z,79.59
2023-10-29T04:58:31.272Z,78.41
2023-10-29T05:04:03.106Z,78.0
2023-10-29T05:09:34.647Z,77.39
2023-10-29T05:15:06.452Z,77.38
2023-10-29T05:20:38.204Z,78.4
2023-10-29T05:26:09.807Z,79.23
2023-10-29T05:31:41.582Z,79.19
2023-10-29T05:37:13.219Z,82.72
2023-10-29T05:42:44.891Z,83.07
2023-10-29T05:48:16.848Z,85.38
2023-10-29T05:53:52.872Z,86.41
2023-10-29T05:59:24.508Z,88.55
2023-10-29T06:04:56.484Z,90.54
2023-10-29T06:10:27.903Z,89.18
2023-10-29T06:15:59.890Z,89.69
2023-10-29T06:21:31.359Z,92.29
2023-10-29T06:27:03.137Z,91.67
2023-10-29T06:32:34.917Z,91.76
2023-10-29T06:38:06.586Z,90.46
2023-10-29T06:43:38.250Z,91.21
2023-10-29T06:49:10.037Z,92.32
2023-10-29T06:54:46.270Z,90.97
2023-10-29T07:00:18.174Z,89.02
2023-10-29T07:05:49.713Z,89.35
2023-10-29T07:11:21.245Z,90.09
2023-10-29T07:16:53.061Z,89.33
2023-10-29T07:22:24.735Z,91.62
2023-10-29T07:27:56.454Z,90.28
2023-10-29T07:33:28.453Z,91.5
2023-10-29T07:39:00.032Z,91.79
2023-10-29T07:44:31.684Z,91.95
2023-10-29T07:50:03.461Z,91.96
2023-10-29T07:55:39.431Z,89.47
2023-10-29T08:01:11.204Z,92.5
2023-10-29T08:06:42.978Z,94.62
2023-10-29T08:12:14.630Z,92.56
2023-10-29T08:17:46.480Z,93.52
2023-10-29T08:23:18.142Z,93.5
2023-10-29T08:28:49.768Z,93.56
2023-10-29T08:34:21.535Z,95.66
2023-10-29T08:39:53.342Z,94.81
2023-10-29T08:45:42.787Z,95.11
2023-10-29T08:50:56.804Z,95.52
2023-10-29T08:56:32.844Z,93.67
2023-10-29T09:02:04.593Z,94.11
2023-10-29T09:07:36.328Z,94.4
2023-10-29T09:13:08.083Z,93.12
2023-10-29T09:18:39.864Z,94.54
2023-10-29T09:24:11.654Z,96.97
2023-10-29T09:29:43.348Z,93.18
2023-10-29T09:35:14.979Z,92.96
2023-10-29T09:40:46.751Z,93.77
2023-10-29T09:46:18.580Z,94.32
2023-10-29T09:51:50.133Z,95.77
2023-10-29T09:57:26.335Z,95.82
2023-10-29T10:02:58.459Z,97.02
2023-10-29T10:08:29.703Z,96.31
2023-10-29T10:14:01.868Z,95.43
2023-10-29T10:19:33.146Z,98.14
2023-10-29T10:25:04.889Z,95.64
2023-10-29T10:30:36.649Z,93.31
2023-10-29T10:36:08.655Z,93.49
2023-10-29T10:41:40.090Z,94.48
2023-10-29T10:47:11.783Z,95.27
2023-10-29T10:52:43.530Z,95.98
2023-10-29T10:58:19.703Z,97.48
2023-10-29T11:03:51.625Z,96.19
2023-10-29T11:09:23.060Z,95.89
2023-10-29T11:14:54.812Z,95.85
2023-10-29T11:20:26.562Z,94.98
2023-10-29T11:25:58.207Z,94.18
2023-10-29T11:31:30.047Z,93.07
2023-10-29T11:37:01.509Z,92.18
2023-10-29T11:42:33.506Z,93.08
2023-10-29T11:48:05.369Z,91.74
2023-10-29T11:53:36.890Z,92.81
2023-10-29T11:59:12.983Z,91.91
2023-10-29T12:04:44.869Z,91.24
2023-10-29T12:10:16.610Z,90.29
2023-10-29T12:15:48.337Z,87.17
2023-10-29T12:21:19.938Z,83.59
2023-10-29T12:26:51.580Z,74.54
2023-10-29T12:32:23.324Z,69.77
2023-10-29T12:37:55.087Z,69.83
2023-10-29T12:43:29.642Z,68.92
2023-10-29T12:48:58.475Z,70.94
2023-10-29T12:54:30.397Z,72.44
2023-10-29T13:00:06.812Z,71.94
2023-10-29T13:05:38.043Z,71.49
2023-10-29T13:11:09.849Z,70.59
2023-10-29T13:16:41.788Z,70.6
2023-10-29T13:22:13.206Z,69.48
2023-10-29T13:27:45.012Z,71.22
2023-10-29T13:33:16.789Z,71.21
2023-10-29T13:38:48.607Z,72.95
2023-10-29T13:44:20.129Z,71.81
2023-10-29T13:49:51.869Z,70.89
2023-10-29T13:55:23.589Z,71.01
2023-10-29T14:00:59.753Z,71.04
2023-10-29T14:06:31.334Z,73.23
2023-10-29T14:12:03.154Z,72.79
2023-10-29T14:17:34.985Z,72.74
2023-10-29T14:23:06.560Z,72.32
2023-10-29T14:28:38.308Z,71.25
2023-10-29T14:34:09.966Z,69.19
2023-10-29T14:39:41.736Z,70.82
2023-10-29T14:45:13.455Z,68.71
2023-10-29T14:50:45.251Z,68.5
2023-10-29T14:56:16.927Z,69.16
2023-10-29T15:01:53.037Z,68.78
2023-10-29T15:07:25.659Z,70.52
2023-10-29T15:12:56.582Z,67.92
2023-10-29T15:18:28.344Z,68.1
2023-10-29T15:23:59.951Z,68.39
2023-10-29T15:29:31.650Z,68.79
2023-10-29T15:35:03.405Z,69.54
2023-10-29T15:40:36.435Z,68.3
2023-10-29T15:46:06.942Z,69.08
2023-10-29T15:51:38.533Z,69.89
2023-10-29T15:57:10.423Z,70.17
2023-10-29T16:02:48.531Z,70.0
2023-10-29T16:08:20.136Z,69.84
2023-10-29T16:13:51.911Z,71.25
2023-10-29T16:19:23.544Z,71.73
2023-10-29T16:24:55.289Z,71.66
2023-10-29T16:30:27.212Z,72.99
2023-10-29T16:35:58.787Z,74.91
2023-10-29T16:41:30.448Z,74.34
2023-10-29T16:47:02.200Z,75.05
2023-10-29T16:52:33.854Z,74.65
2023-10-29T16:58:05.560Z,82.72
2023-10-29T17:03:44.091Z,100.0
2023-10-29T17:09:15.515Z,100.0
2023-10-29T17:14:47.625Z,100.0
2023-10-29T17:20:18.972Z,100.0
2023-10-29T17:25:50.561Z,100.0
2023-10-29T17:31:22.382Z,100.0
2023-10-29T17:36:54.078Z,100.0
2023-10-29T17:42:25.941Z,100.0
2023-10-29T17:47:58.170Z,100.0
2023-10-29T17:53:29.219Z,100.0
2023-10-29T17:59:00.932Z,100.0
2023-10-29T18:04:37.062Z,100.0
2023-10-29T18:10:08.740Z,100.0
2023-10-29T18:15:40.525Z,100.0
2023-10-29T18:21:12.106Z,100.0
2023-10-29T18:26:44.396Z,100.0
2023-10-29T18:32:15.590Z,100.0
2023-10-29T18:37:47.319Z,100.0
2023-10-29T18:43:19.080Z,100.0
2023-10-29T18:48:50.948Z,100.0
2023-10-29T18:54:22.628Z,100.0
2023-10-29T18:59:54.269Z,100.0
2023-10-29T19:05:30.349Z,100.0
2023-10-29T19:11:02.378Z,100.0
2023-10-29T19:16:33.954Z,100.0
2023-10-29T19:22:05.572Z,100.0
2023-10-29T19:27:37.335Z,100.0
2023-10-29T19:33:09.112Z,100.0
2023-10-29T19:38:40.634Z,100.0
2023-10-29T19:44:12.435Z,100.0
2023-10-29T19:49:44.075Z,100.0
2023-10-29T19:55:15.965Z,100.0
2023-10-29T20:00:47.534Z,100.0
2023-10-29T20:06:23.757Z,100.0
2023-10-29T20:11:55.516Z,100.0
2023-10-29T20:17:27.225Z,100.0
2023-10-29T20:22:58.876Z,100.0
2023-10-29T20:28:30.587Z,100.0
2023-10-29T20:34:02.336Z,100.0
2023-10-29T20:39:34.135Z,100.0
2023-10-29T20:45:05.823Z,100.0
2023-10-29T20:50:37.756Z,100.0
2023-10-29T20:56:09.149Z,100.0
2023-10-29T21:01:41.086Z,100.0
2023-10-29T21:07:17.075Z,100.0
2023-10-29T21:12:48.788Z,100.0
2023-10-29T21:18:20.688Z,100.0
2023-10-29T21:23:52.266Z,100.0
2023-10-29T21:29:24.537Z,100.0
2023-10-29T21:34:55.739Z,100.0
2023-10-29T21:40:27.548Z,100.0
2023-10-29T21:45:59.733Z,100.0
2023-10-29T21:51:31.046Z,100.0
2023-10-29T21:57:02.695Z,100.0
2023-10-29T22:02:34.536Z,100.0
2023-10-29T22:08:11.176Z,100.0
2023-10-29T22:13:42.797Z,100.0
2023-10-29T22:19:13.875Z,100.0
2023-10-29T22:24:45.688Z,100.0
2023-10-29T22:30:17.343Z,100.0
2023-10-29T22:35:49.068Z,100.0
2023-10-29T22:41:21.337Z,100.0
2023-10-29T22:46:52.502Z,100.0
2023-10-29T22:52:24.218Z,100.0
2023-10-29T22:57:55.948Z,100.0
2023-10-29T23:03:28.321Z,100.0
2023-10-29T23:09:03.975Z,100.0
2023-10-29T23:14:35.495Z,100.0
2023-10-29T23:20:07.324Z,100.0
2023-10-29T23:25:38.904Z,100.0
2023-10-29T23:31:11.062Z,100.0
2023-10-29T23:36:42.462Z,100.0
2023-10-29T23:42:14.130Z,100.0
2023-10-29T23:47:45.964Z,100.0
2023-10-29T23:53:17.592Z,100.0
2023-10-29T23:58:49.413Z,100.0
